Hovedside
METAR-TAF:

METAR-TAF

Lufthavner :

Šiauliai, Litauen

breddegrad: 55-53-38N, lengdegrad: 023-23-42E, høyde over havet: 135 m

Gjeldene værobservasjon

Denne rapporten ble laget for 1 time og 9 minutter siden, klokken 10:50 UTC
Vind 9 kt fra Øst-sørøst
Temperatur 1°C
Luftfuktighet 100%
Trykk 1019 hPa
Sikt: 8000 m
Overskyet i en høyde av 200 ft

METAR: EYSA 221050Z 12009KT 8000 OVC002 01/01 Q1019 AMB TEMPO OVC003 YLO2

Tid: 14:59 (11:59 UTC)

Varsel

Denne rapporten ble laget for 56 minutter siden, klokken 11:03 UTC
Varsel gyldig fra 22. klokken 12 UTC til 22. klokken 21 UTC
Vind 8 kt fra Sørøst
Sikt: 8000 m
Overskyet i en høyde av 300 ft
Blir
fra 22. klokken 13 UTC til 22. klokken 15 UTC
Brutte skyer i en høyde av 1000 ft

TAF: EYSA 221103Z 2212/2221 13008KT 8000 OVC003 BECMG 2213/2215 BKN010

Værobservasjoner og værvarsel for over 4000 flyplasser (METAR- og TAF-rapporter).

Tilgjengelige stasjoner er representert av de røde og gule prikkene på kartet.

Hold musepekeren over prikken for å se navnet på stasjonen.

Klikk så for å se værobservasjoner og -varsler.

For å forandre kartet kan du klikke på den grønne knappen med svart kryss for å zoome inn, på den grønne knappen med strek for å zoome ut, eller på de grønne pilene for å se tilstøtende kart.


METAR-TAF: